sensor_id;sensor_type;location;lat;lon;timestamp;temperature;humidity
20829;DHT22;10575;50.124;8.582;2023-08-30T00:00:47;15.60;99.90
20829;DHT22;10575;50.124;8.582;2023-08-30T00:03:13;15.60;99.90
20829;DHT22;10575;50.124;8.582;2023-08-30T00:05:40;15.50;99.90
20829;DHT22;10575;50.124;8.582;2023-08-30T00:08:06;15.60;99.90
20829;DHT22;10575;50.124;8.582;2023-08-30T00:10:32;15.60;99.90
20829;DHT22;10575;50.124;8.582;2023-08-30T00:12:57;15.60;99.90
20829;DHT22;10575;50.124;8.582;2023-08-30T00:15:23;15.60;99.90
20829;DHT22;10575;50.124;8.582;2023-08-30T00:17:48;15.70;99.90
20829;DHT22;10575;50.124;8.582;2023-08-30T00:20:14;15.70;99.90
20829;DHT22;10575;50.124;8.582;2023-08-30T00:22:39;15.70;99.90
20829;DHT22;10575;50.124;8.582;2023-08-30T00:25:05;15.80;99.90
20829;DHT22;10575;50.124;8.582;2023-08-30T00:27:31;15.80;99.90
20829;DHT22;10575;50.124;8.582;2023-08-30T00:29:56;15.80;99.90
20829;DHT22;10575;50.124;8.582;2023-08-30T00:32:22;15.80;99.90
20829;DHT22;10575;50.124;8.582;2023-08-30T00:34:50;15.90;99.90
20829;DHT22;10575;50.124;8.582;2023-08-30T00:37:16;15.80;99.90
20829;DHT22;10575;50.124;8.582;2023-08-30T00:39:42;15.80;99.90
20829;DHT22;10575;50.124;8.582;2023-08-30T00:42:08;15.70;99.90
20829;DHT22;10575;50.124;8.582;2023-08-30T00:44:34;15.60;99.90
20829;DHT22;10575;50.124;8.582;2023-08-30T00:47:02;15.60;99.90
20829;DHT22;10575;50.124;8.582;2023-08-30T00:49:32;15.70;99.90
20829;DHT22;10575;50.124;8.582;2023-08-30T00:52:00;15.70;99.90
20829;DHT22;10575;50.124;8.582;2023-08-30T00:54:26;15.70;99.90
20829;DHT22;10575;50.124;8.582;2023-08-30T00:56:52;15.70;99.90
20829;DHT22;10575;50.124;8.582;2023-08-30T00:59:18;15.70;99.90
20829;DHT22;10575;50.124;8.582;2023-08-30T01:01:49;15.60;99.90
20829;DHT22;10575;50.124;8.582;2023-08-30T01:04:14;15.60;99.90
20829;DHT22;10575;50.124;8.582;2023-08-30T01:06:41;15.60;99.90
20829;DHT22;10575;50.124;8.582;2023-08-30T01:09:07;15.60;99.90
20829;DHT22;10575;50.124;8.582;2023-08-30T01:14:31;15.60;99.90
20829;DHT22;10575;50.124;8.582;2023-08-30T01:17:07;15.60;99.90
20829;DHT22;10575;50.124;8.582;2023-08-30T01:20:04;15.50;99.90
20829;DHT22;10575;50.124;8.582;2023-08-30T01:25:42;15.30;99.90
20829;DHT22;10575;50.124;8.582;2023-08-30T01:28:09;15.40;99.90
20829;DHT22;10575;50.124;8.582;2023-08-30T01:30:37;15.30;99.90
20829;DHT22;10575;50.124;8.582;2023-08-30T01:33:05;15.30;99.90
20829;DHT22;10575;50.124;8.582;2023-08-30T01:35:32;15.40;99.90
20829;DHT22;10575;50.124;8.582;2023-08-30T01:38:04;15.40;99.90
20829;DHT22;10575;50.124;8.582;2023-08-30T01:40:40;15.40;99.90
20829;DHT22;10575;50.124;8.582;2023-08-30T01:43:07;15.40;99.90
20829;DHT22;10575;50.124;8.582;2023-08-30T01:45:35;15.30;99.90
20829;DHT22;10575;50.124;8.582;2023-08-30T01:48:03;15.40;99.90
20829;DHT22;10575;50.124;8.582;2023-08-30T01:50:29;15.30;99.90
20829;DHT22;10575;50.124;8.582;2023-08-30T01:52:55;15.30;99.90
20829;DHT22;10575;50.124;8.582;2023-08-30T01:55:22;15.30;99.90
20829;DHT22;10575;50.124;8.582;2023-08-30T01:57:48;15.20;99.90
20829;DHT22;10575;50.124;8.582;2023-08-30T02:00:14;15.20;99.90
20829;DHT22;10575;50.124;8.582;2023-08-30T02:02:40;15.10;99.90
20829;DHT22;10575;50.124;8.582;2023-08-30T02:05:06;15.20;99.90
20829;DHT22;10575;50.124;8.582;2023-08-30T02:10:13;15.10;99.90
20829;DHT22;10575;50.124;8.582;2023-08-30T02:12:46;15.00;99.90
20829;DHT22;10575;50.124;8.582;2023-08-30T02:15:13;15.00;99.90
20829;DHT22;10575;50.124;8.582;2023-08-30T02:17:39;15.00;99.90
20829;DHT22;10575;50.124;8.582;2023-08-30T02:20:14;15.10;99.90
20829;DHT22;10575;50.124;8.582;2023-08-30T02:22:40;15.10;99.90
20829;DHT22;10575;50.124;8.582;2023-08-30T02:25:06;15.00;99.90
20829;DHT22;10575;50.124;8.582;2023-08-30T02:27:32;14.90;99.90
20829;DHT22;10575;50.124;8.582;2023-08-30T02:33:08;14.60;99.90
20829;DHT22;10575;50.124;8.582;2023-08-30T02:35:35;14.70;99.90
20829;DHT22;10575;50.124;8.582;2023-08-30T02:38:06;14.80;99.90
20829;DHT22;10575;50.124;8.582;2023-08-30T02:40:38;15.00;99.90
20829;DHT22;10575;50.124;8.582;2023-08-30T02:43:03;15.10;99.90
20829;DHT22;10575;50.124;8.582;2023-08-30T02:45:29;15.20;99.90
20829;DHT22;10575;50.124;8.582;2023-08-30T02:47:57;15.20;99.90
20829;DHT22;10575;50.124;8.582;2023-08-30T02:50:24;15.20;99.90
20829;DHT22;10575;50.124;8.582;2023-08-30T02:52:50;15.30;99.90
20829;DHT22;10575;50.124;8.582;2023-08-30T02:55:15;15.30;99.90
20829;DHT22;10575;50.124;8.582;2023-08-30T02:57:41;15.40;99.90
20829;DHT22;10575;50.124;8.582;2023-08-30T03:00:07;15.40;99.90
20829;DHT22;10575;50.124;8.582;2023-08-30T03:02:34;15.40;99.90
20829;DHT22;10575;50.124;8.582;2023-08-30T03:04:59;15.40;99.90
20829;DHT22;10575;50.124;8.582;2023-08-30T03:07:25;15.50;99.90
20829;DHT22;10575;50.124;8.582;2023-08-30T03:09:54;15.50;99.90
20829;DHT22;10575;50.124;8.582;2023-08-30T03:12:20;15.50;99.90
20829;DHT22;10575;50.124;8.582;2023-08-30T03:14:46;15.60;99.90
20829;DHT22;10575;50.124;8.582;2023-08-30T03:17:11;15.50;99.90
20829;DHT22;10575;50.124;8.582;2023-08-30T03:19:37;15.50;99.90
20829;DHT22;10575;50.124;8.582;2023-08-30T03:22:02;15.50;99.90
20829;DHT22;10575;50.124;8.582;2023-08-30T03:24:28;15.50;99.90
20829;DHT22;10575;50.124;8.582;2023-08-30T03:26:54;15.60;99.90
20829;DHT22;10575;50.124;8.582;2023-08-30T03:29:19;15.60;99.90
20829;DHT22;10575;50.124;8.582;2023-08-30T03:31:45;15.50;99.90
20829;DHT22;10575;50.124;8.582;2023-08-30T03:34:10;15.50;99.90
20829;DHT22;10575;50.124;8.582;2023-08-30T03:36:37;15.50;99.90
20829;DHT22;10575;50.124;8.582;2023-08-30T03:39:03;15.50;99.90
20829;DHT22;10575;50.124;8.582;2023-08-30T03:41:28;15.50;99.90
20829;DHT22;10575;50.124;8.582;2023-08-30T03:43:54;15.50;99.90
20829;DHT22;10575;50.124;8.582;2023-08-30T03:46:25;15.50;99.90
20829;DHT22;10575;50.124;8.582;2023-08-30T03:48:51;15.50;99.90
20829;DHT22;10575;50.124;8.582;2023-08-30T03:51:17;15.50;99.90
20829;DHT22;10575;50.124;8.582;2023-08-30T07:15:34;18.90;99.90
20829;DHT22;10575;50.124;8.582;2023-08-30T07:17:59;18.80;99.90
20829;DHT22;10575;50.124;8.582;2023-08-30T07:20:25;18.80;99.90
20829;DHT22;10575;50.124;8.582;2023-08-30T07:22:50;18.80;99.90
20829;DHT22;10575;50.124;8.582;2023-08-30T07:25:16;18.70;99.90
20829;DHT22;10575;50.124;8.582;2023-08-30T07:27:42;18.70;99.90
20829;DHT22;10575;50.124;8.582;2023-08-30T07:30:07;18.70;99.90
20829;DHT22;10575;50.124;8.582;2023-08-30T07:32:33;18.60;99.90
20829;DHT22;10575;50.124;8.582;2023-08-30T07:35:00;18.50;99.90
20829;DHT22;10575;50.124;8.582;2023-08-30T07:37:25;18.60;99.90
20829;DHT22;10575;50.124;8.582;2023-08-30T07:39:51;18.80;99.90
20829;DHT22;10575;50.124;8.582;2023-08-30T07:42:17;18.90;99.90
20829;DHT22;10575;50.124;8.582;2023-08-30T07:44:42;19.30;99.90
20829;DHT22;10575;50.124;8.582;2023-08-30T07:47:08;19.40;99.90
20829;DHT22;10575;50.124;8.582;2023-08-30T07:49:33;19.60;99.90
20829;DHT22;10575;50.124;8.582;2023-08-30T07:51:59;19.90;99.90
20829;DHT22;10575;50.124;8.582;2023-08-30T07:54:25;20.10;99.90
20829;DHT22;10575;50.124;8.582;2023-08-30T07:56:50;20.30;99.90
20829;DHT22;10575;50.124;8.582;2023-08-30T07:59:16;20.60;99.90
20829;DHT22;10575;50.124;8.582;2023-08-30T08:01:41;20.60;99.90
20829;DHT22;10575;50.124;8.582;2023-08-30T08:04:07;21.00;99.90
20829;DHT22;10575;50.124;8.582;2023-08-30T08:06:32;21.60;99.90
20829;DHT22;10575;50.124;8.582;2023-08-30T08:08:58;22.10;99.90
20829;DHT22;10575;50.124;8.582;2023-08-30T08:11:24;22.50;99.90
20829;DHT22;10575;50.124;8.582;2023-08-30T08:13:49;22.30;99.90
20829;DHT22;10575;50.124;8.582;2023-08-30T08:16:15;22.10;99.90
20829;DHT22;10575;50.124;8.582;2023-08-30T08:18:40;22.10;99.90
20829;DHT22;10575;50.124;8.582;2023-08-30T08:21:06;21.90;99.90
20829;DHT22;10575;50.124;8.582;2023-08-30T08:23:32;22.10;99.90
20829;DHT22;10575;50.124;8.582;2023-08-30T08:25:58;22.20;99.90
20829;DHT22;10575;50.124;8.582;2023-08-30T08:28:24;23.00;99.90
20829;DHT22;10575;50.124;8.582;2023-08-30T08:30:50;24.10;99.90
20829;DHT22;10575;50.124;8.582;2023-08-30T08:33:17;25.40;99.90
20829;DHT22;10575;50.124;8.582;2023-08-30T08:35:43;26.60;99.90
20829;DHT22;10575;50.124;8.582;2023-08-30T08:38:10;26.90;99.90
20829;DHT22;10575;50.124;8.582;2023-08-30T08:40:39;26.40;99.90
20829;DHT22;10575;50.124;8.582;2023-08-30T08:43:05;26.10;99.90
20829;DHT22;10575;50.124;8.582;2023-08-30T08:45:34;25.70;99.90
20829;DHT22;10575;50.124;8.582;2023-08-30T08:48:01;25.40;99.90
20829;DHT22;10575;50.124;8.582;2023-08-30T08:50:28;25.50;99.90
20829;DHT22;10575;50.124;8.582;2023-08-30T08:52:55;25.60;99.90
20829;DHT22;10575;50.124;8.582;2023-08-30T08:55:21;26.10;99.90
20829;DHT22;10575;50.124;8.582;2023-08-30T08:57:48;27.20;99.90
20829;DHT22;10575;50.124;8.582;2023-08-30T09:00:14;27.90;99.90
20829;DHT22;10575;50.124;8.582;2023-08-30T09:02:42;28.30;99.90
20829;DHT22;10575;50.124;8.582;2023-08-30T09:05:08;28.00;99.90
20829;DHT22;10575;50.124;8.582;2023-08-30T09:07:34;28.30;99.90
20829;DHT22;10575;50.124;8.582;2023-08-30T09:10:01;29.00;99.90
20829;DHT22;10575;50.124;8.582;2023-08-30T09:12:26;29.40;99.90
20829;DHT22;10575;50.124;8.582;2023-08-30T09:14:56;28.70;99.90
20829;DHT22;10575;50.124;8.582;2023-08-30T09:17:22;28.10;99.90
20829;DHT22;10575;50.124;8.582;2023-08-30T09:19:48;28.20;99.90
20829;DHT22;10575;50.124;8.582;2023-08-30T09:22:13;28.40;99.90
20829;DHT22;10575;50.124;8.582;2023-08-30T09:24:40;29.10;99.90
20829;DHT22;10575;50.124;8.582;2023-08-30T09:27:07;30.80;99.90
20829;DHT22;10575;50.124;8.582;2023-08-30T09:29:33;31.60;99.90
20829;DHT22;10575;50.124;8.582;2023-08-30T09:31:58;31.40;99.90
20829;DHT22;10575;50.124;8.582;2023-08-30T09:34:31;30.70;99.90
20829;DHT22;10575;50.124;8.582;2023-08-30T09:36:57;29.80;99.90
20829;DHT22;10575;50.124;8.582;2023-08-30T09:39:24;29.00;99.90
20829;DHT22;10575;50.124;8.582;2023-08-30T09:41:50;28.50;99.90
20829;DHT22;10575;50.124;8.582;2023-08-30T09:44:20;27.80;99.90
20829;DHT22;10575;50.124;8.582;2023-08-30T09:46:52;27.10;99.90
20829;DHT22;10575;50.124;8.582;2023-08-30T09:49:22;26.70;99.90
20829;DHT22;10575;50.124;8.582;2023-08-30T09:51:49;26.30;99.90
20829;DHT22;10575;50.124;8.582;2023-08-30T09:54:24;26.00;99.90
20829;DHT22;10575;50.124;8.582;2023-08-30T09:56:50;25.80;99.90
20829;DHT22;10575;50.124;8.582;2023-08-30T09:59:19;25.60;99.90
20829;DHT22;10575;50.124;8.582;2023-08-30T10:01:47;25.60;99.90
20829;DHT22;10575;50.124;8.582;2023-08-30T10:04:18;25.60;99.90
20829;DHT22;10575;50.124;8.582;2023-08-30T10:06:45;25.70;99.90
20829;DHT22;10575;50.124;8.582;2023-08-30T10:09:12;25.60;99.90
20829;DHT22;10575;50.124;8.582;2023-08-30T10:11:38;25.50;99.90
20829;DHT22;10575;50.124;8.582;2023-08-30T10:14:05;25.20;99.90
20829;DHT22;10575;50.124;8.582;2023-08-30T10:16:42;25.00;99.90
20829;DHT22;10575;50.124;8.582;2023-08-30T10:19:24;24.80;99.90
20829;DHT22;10575;50.124;8.582;2023-08-30T10:22:06;24.70;99.90
20829;DHT22;10575;50.124;8.582;2023-08-30T10:25:01;24.50;99.90
20829;DHT22;10575;50.124;8.582;2023-08-30T10:27:31;24.50;99.90
20829;DHT22;10575;50.124;8.582;2023-08-30T10:29:59;24.30;99.90
20829;DHT22;10575;50.124;8.582;2023-08-30T10:32:26;24.00;99.90
20829;DHT22;10575;50.124;8.582;2023-08-30T10:34:51;24.00;99.90
20829;DHT22;10575;50.124;8.582;2023-08-30T10:37:22;23.90;99.90
20829;DHT22;10575;50.124;8.582;2023-08-30T10:39:49;23.60;99.90
20829;DHT22;10575;50.124;8.582;2023-08-30T10:42:16;23.40;99.90
20829;DHT22;10575;50.124;8.582;2023-08-30T10:44:51;23.30;99.90
20829;DHT22;10575;50.124;8.582;2023-08-30T10:47:22;23.40;99.90
20829;DHT22;10575;50.124;8.582;2023-08-30T10:49:47;23.50;99.90
20829;DHT22;10575;50.124;8.582;2023-08-30T10:52:13;23.70;99.90
20829;DHT22;10575;50.124;8.582;2023-08-30T10:54:39;23.90;99.90
20829;DHT22;10575;50.124;8.582;2023-08-30T10:57:05;24.10;99.90
20829;DHT22;10575;50.124;8.582;2023-08-30T10:59:30;24.10;99.90
20829;DHT22;10575;50.124;8.582;2023-08-30T11:01:56;24.00;99.90
20829;DHT22;10575;50.124;8.582;2023-08-30T11:04:26;23.80;99.90
20829;DHT22;10575;50.124;8.582;2023-08-30T11:06:51;23.70;99.90
20829;DHT22;10575;50.124;8.582;2023-08-30T11:09:19;23.70;99.90
20829;DHT22;10575;50.124;8.582;2023-08-30T11:11:45;23.70;99.90
20829;DHT22;10575;50.124;8.582;2023-08-30T11:14:11;23.60;99.90
20829;DHT22;10575;50.124;8.582;2023-08-30T11:16:37;23.70;99.90
20829;DHT22;10575;50.124;8.582;2023-08-30T11:19:04;23.70;99.90
20829;DHT22;10575;50.124;8.582;2023-08-30T11:21:35;23.50;99.90
20829;DHT22;10575;50.124;8.582;2023-08-30T11:24:02;23.50;99.90
20829;DHT22;10575;50.124;8.582;2023-08-30T11:26:28;23.50;99.90
20829;DHT22;10575;50.124;8.582;2023-08-30T11:28:54;23.70;99.90
20829;DHT22;10575;50.124;8.582;2023-08-30T11:31:22;23.70;99.90
20829;DHT22;10575;50.124;8.582;2023-08-30T11:36:18;23.40;99.90
20829;DHT22;10575;50.124;8.582;2023-08-30T11:38:45;23.40;99.90
20829;DHT22;10575;50.124;8.582;2023-08-30T11:41:12;23.40;99.90
20829;DHT22;10575;50.124;8.582;2023-08-30T11:43:38;23.40;99.90
20829;DHT22;10575;50.124;8.582;2023-08-30T11:46:04;23.30;99.90
20829;DHT22;10575;50.124;8.582;2023-08-30T11:48:29;23.20;99.90
20829;DHT22;10575;50.124;8.582;2023-08-30T11:50:55;23.00;99.90
20829;DHT22;10575;50.124;8.582;2023-08-30T11:53:21;22.80;99.90
20829;DHT22;10575;50.124;8.582;2023-08-30T11:55:46;22.90;99.90
20829;DHT22;10575;50.124;8.582;2023-08-30T11:58:12;23.00;99.90
20829;DHT22;10575;50.124;8.582;2023-08-30T12:00:38;23.10;99.90
20829;DHT22;10575;50.124;8.582;2023-08-30T12:03:05;23.10;99.90
20829;DHT22;10575;50.124;8.582;2023-08-30T12:05:31;23.30;99.90
20829;DHT22;10575;50.124;8.582;2023-08-30T12:08:00;23.50;99.90
20829;DHT22;10575;50.124;8.582;2023-08-30T12:10:28;23.60;99.90
20829;DHT22;10575;50.124;8.582;2023-08-30T12:12:53;23.70;99.90
20829;DHT22;10575;50.124;8.582;2023-08-30T12:15:19;23.50;99.90
20829;DHT22;10575;50.124;8.582;2023-08-30T12:17:45;23.50;99.90
20829;DHT22;10575;50.124;8.582;2023-08-30T12:20:17;23.50;99.90
20829;DHT22;10575;50.124;8.582;2023-08-30T12:22:43;23.50;99.90
20829;DHT22;10575;50.124;8.582;2023-08-30T12:25:19;23.50;99.90
20829;DHT22;10575;50.124;8.582;2023-08-30T12:27:46;23.70;99.90
20829;DHT22;10575;50.124;8.582;2023-08-30T12:30:15;24.00;99.90
20829;DHT22;10575;50.124;8.582;2023-08-30T12:32:42;24.20;99.90
20829;DHT22;10575;50.124;8.582;2023-08-30T12:35:08;24.30;99.90
20829;DHT22;10575;50.124;8.582;2023-08-30T12:37:34;24.10;99.90
20829;DHT22;10575;50.124;8.582;2023-08-30T12:40:00;23.90;99.90
20829;DHT22;10575;50.124;8.582;2023-08-30T12:42:25;24.00;99.90
20829;DHT22;10575;50.124;8.582;2023-08-30T12:44:51;24.00;99.90
20829;DHT22;10575;50.124;8.582;2023-08-30T12:47:17;24.10;99.90
20829;DHT22;10575;50.124;8.582;2023-08-30T12:49:42;24.10;99.90
20829;DHT22;10575;50.124;8.582;2023-08-30T12:52:08;24.20;99.90
20829;DHT22;10575;50.124;8.582;2023-08-30T12:54:33;24.10;99.90
20829;DHT22;10575;50.124;8.582;2023-08-30T12:56:59;24.10;99.90
20829;DHT22;10575;50.124;8.582;2023-08-30T12:59:24;24.10;99.90
20829;DHT22;10575;50.124;8.582;2023-08-30T13:01:50;24.10;99.90
20829;DHT22;10575;50.124;8.582;2023-08-30T13:04:15;24.00;99.90
20829;DHT22;10575;50.124;8.582;2023-08-30T13:06:41;23.90;99.90
20829;DHT22;10575;50.124;8.582;2023-08-30T13:09:07;23.90;99.90
20829;DHT22;10575;50.124;8.582;2023-08-30T13:11:32;23.80;99.90
20829;DHT22;10575;50.124;8.582;2023-08-30T13:13:58;23.90;99.90
20829;DHT22;10575;50.124;8.582;2023-08-30T13:16:24;23.70;99.90
20829;DHT22;10575;50.124;8.582;2023-08-30T13:18:50;23.50;99.90
20829;DHT22;10575;50.124;8.582;2023-08-30T13:21:16;23.40;99.90
20829;DHT22;10575;50.124;8.582;2023-08-30T13:23:41;23.40;99.90
20829;DHT22;10575;50.124;8.582;2023-08-30T13:26:07;23.40;99.90
20829;DHT22;10575;50.124;8.582;2023-08-30T13:28:33;23.50;99.90
20829;DHT22;10575;50.124;8.582;2023-08-30T13:30:59;23.60;99.90
20829;DHT22;10575;50.124;8.582;2023-08-30T13:33:25;23.70;99.90
20829;DHT22;10575;50.124;8.582;2023-08-30T13:35:51;23.50;99.90
20829;DHT22;10575;50.124;8.582;2023-08-30T13:38:17;23.30;99.90
20829;DHT22;10575;50.124;8.582;2023-08-30T13:40:43;23.30;99.90
20829;DHT22;10575;50.124;8.582;2023-08-30T13:43:09;23.40;99.90
20829;DHT22;10575;50.124;8.582;2023-08-30T13:45:35;23.50;99.90
20829;DHT22;10575;50.124;8.582;2023-08-30T13:48:00;23.60;99.90
20829;DHT22;10575;50.124;8.582;2023-08-30T13:50:26;23.40;99.90
20829;DHT22;10575;50.124;8.582;2023-08-30T13:52:56;23.70;99.90
20829;DHT22;10575;50.124;8.582;2023-08-30T13:55:21;23.80;99.90
20829;DHT22;10575;50.124;8.582;2023-08-30T13:57:47;23.70;99.90
20829;DHT22;10575;50.124;8.582;2023-08-30T14:00:13;23.60;99.90
20829;DHT22;10575;50.124;8.582;2023-08-30T14:02:39;23.70;99.90
20829;DHT22;10575;50.124;8.582;2023-08-30T14:05:08;24.00;99.90
20829;DHT22;10575;50.124;8.582;2023-08-30T14:07:33;24.10;99.90
20829;DHT22;10575;50.124;8.582;2023-08-30T14:09:59;24.00;99.90
20829;DHT22;10575;50.124;8.582;2023-08-30T14:12:25;23.60;99.90
20829;DHT22;10575;50.124;8.582;2023-08-30T14:14:51;23.40;99.90
20829;DHT22;10575;50.124;8.582;2023-08-30T14:17:18;23.40;99.90
20829;DHT22;10575;50.124;8.582;2023-08-30T14:19:43;23.30;99.90
20829;DHT22;10575;50.124;8.582;2023-08-30T14:22:09;23.40;99.90
20829;DHT22;10575;50.124;8.582;2023-08-30T14:24:34;23.40;99.90
20829;DHT22;10575;50.124;8.582;2023-08-30T14:27:00;23.50;99.90
20829;DHT22;10575;50.124;8.582;2023-08-30T14:29:26;23.80;99.90
20829;DHT22;10575;50.124;8.582;2023-08-30T14:31:51;23.60;99.90
20829;DHT22;10575;50.124;8.582;2023-08-30T14:34:17;23.50;99.90
20829;DHT22;10575;50.124;8.582;2023-08-30T14:36:43;23.40;99.90
20829;DHT22;10575;50.124;8.582;2023-08-30T14:39:09;23.60;99.90
20829;DHT22;10575;50.124;8.582;2023-08-30T14:41:35;23.60;99.90
20829;DHT22;10575;50.124;8.582;2023-08-30T14:44:02;23.70;99.90
20829;DHT22;10575;50.124;8.582;2023-08-30T14:46:31;23.70;99.90
20829;DHT22;10575;50.124;8.582;2023-08-30T14:48:57;23.70;99.90
20829;DHT22;10575;50.124;8.582;2023-08-30T14:51:22;23.70;99.90
20829;DHT22;10575;50.124;8.582;2023-08-30T14:53:48;23.60;99.90
20829;DHT22;10575;50.124;8.582;2023-08-30T14:56:13;23.50;99.90
20829;DHT22;10575;50.124;8.582;2023-08-30T14:58:39;23.40;99.90
20829;DHT22;10575;50.124;8.582;2023-08-30T15:01:07;23.20;99.90
20829;DHT22;10575;50.124;8.582;2023-08-30T15:03:34;23.10;99.90
20829;DHT22;10575;50.124;8.582;2023-08-30T15:06:00;23.10;99.90
20829;DHT22;10575;50.124;8.582;2023-08-30T15:08:26;22.90;99.90
20829;DHT22;10575;50.124;8.582;2023-08-30T15:10:51;22.90;99.90
20829;DHT22;10575;50.124;8.582;2023-08-30T15:13:17;22.80;99.90
20829;DHT22;10575;50.124;8.582;2023-08-30T15:15:42;22.80;99.90
20829;DHT22;10575;50.124;8.582;2023-08-30T15:18:08;22.60;99.90
20829;DHT22;10575;50.124;8.582;2023-08-30T15:20:37;22.50;99.90
20829;DHT22;10575;50.124;8.582;2023-08-30T15:23:02;22.50;99.90
20829;DHT22;10575;50.124;8.582;2023-08-30T15:25:28;22.50;99.90
20829;DHT22;10575;50.124;8.582;2023-08-30T15:27:54;22.40;99.90
20829;DHT22;10575;50.124;8.582;2023-08-30T15:30:19;22.20;99.90
20829;DHT22;10575;50.124;8.582;2023-08-30T15:32:45;22.30;99.90
20829;DHT22;10575;50.124;8.582;2023-08-30T15:35:11;22.40;99.90
20829;DHT22;10575;50.124;8.582;2023-08-30T15:37:36;22.40;99.90
20829;DHT22;10575;50.124;8.582;2023-08-30T15:40:03;22.40;99.90
20829;DHT22;10575;50.124;8.582;2023-08-30T15:42:33;22.50;99.90
20829;DHT22;10575;50.124;8.582;2023-08-30T15:45:03;22.50;99.90
20829;DHT22;10575;50.124;8.582;2023-08-30T15:47:31;22.60;99.90
20829;DHT22;10575;50.124;8.582;2023-08-30T15:49:56;22.60;99.90
20829;DHT22;10575;50.124;8.582;2023-08-30T15:52:22;22.60;99.90
20829;DHT22;10575;50.124;8.582;2023-08-30T15:54:47;22.50;99.90
20829;DHT22;10575;50.124;8.582;2023-08-30T15:57:13;22.50;99.90
20829;DHT22;10575;50.124;8.582;2023-08-30T15:59:38;22.50;99.90
20829;DHT22;10575;50.124;8.582;2023-08-30T16:02:04;22.40;99.90
20829;DHT22;10575;50.124;8.582;2023-08-30T16:04:30;22.30;99.90
20829;DHT22;10575;50.124;8.582;2023-08-30T16:06:55;22.30;99.90
20829;DHT22;10575;50.124;8.582;2023-08-30T16:09:21;22.20;99.90
20829;DHT22;10575;50.124;8.582;2023-08-30T16:11:46;22.20;99.90
20829;DHT22;10575;50.124;8.582;2023-08-30T16:14:12;22.10;99.90
20829;DHT22;10575;50.124;8.582;2023-08-30T16:16:38;22.00;99.90
20829;DHT22;10575;50.124;8.582;2023-08-30T16:19:04;21.90;99.90
20829;DHT22;10575;50.124;8.582;2023-08-30T16:21:29;21.90;99.90
20829;DHT22;10575;50.124;8.582;2023-08-30T16:23:56;21.90;99.90
20829;DHT22;10575;50.124;8.582;2023-08-30T16:26:21;21.90;99.90
20829;DHT22;10575;50.124;8.582;2023-08-30T16:28:47;21.80;99.90
20829;DHT22;10575;50.124;8.582;2023-08-30T16:31:13;21.70;99.90
20829;DHT22;10575;50.124;8.582;2023-08-30T16:33:38;21.70;99.90
20829;DHT22;10575;50.124;8.582;2023-08-30T16:36:05;21.60;99.90
20829;DHT22;10575;50.124;8.582;2023-08-30T16:38:30;21.60;99.90
20829;DHT22;10575;50.124;8.582;2023-08-30T16:40:58;21.60;99.90
20829;DHT22;10575;50.124;8.582;2023-08-30T16:43:28;21.40;99.90
20829;DHT22;10575;50.124;8.582;2023-08-30T16:45:54;21.20;99.90
20829;DHT22;10575;50.124;8.582;2023-08-30T16:48:20;21.30;99.90
20829;DHT22;10575;50.124;8.582;2023-08-30T16:50:45;21.20;99.90
20829;DHT22;10575;50.124;8.582;2023-08-30T16:53:11;21.10;99.90
20829;DHT22;10575;50.124;8.582;2023-08-30T16:55:36;21.00;99.90
20829;DHT22;10575;50.124;8.582;2023-08-30T16:58:02;20.90;99.90
20829;DHT22;10575;50.124;8.582;2023-08-30T17:00:27;20.90;99.90
20829;DHT22;10575;50.124;8.582;2023-08-30T17:02:53;20.80;99.90
20829;DHT22;10575;50.124;8.582;2023-08-30T17:05:20;20.80;99.90
20829;DHT22;10575;50.124;8.582;2023-08-30T17:07:45;20.70;99.90
20829;DHT22;10575;50.124;8.582;2023-08-30T17:10:11;20.60;99.90
20829;DHT22;10575;50.124;8.582;2023-08-30T17:12:37;20.50;99.90
20829;DHT22;10575;50.124;8.582;2023-08-30T17:15:03;20.30;99.90
20829;DHT22;10575;50.124;8.582;2023-08-30T17:17:29;20.20;99.90
20829;DHT22;10575;50.124;8.582;2023-08-30T17:19:55;20.00;99.90
20829;DHT22;10575;50.124;8.582;2023-08-30T17:22:20;19.90;99.90
20829;DHT22;10575;50.124;8.582;2023-08-30T17:24:46;19.70;99.90
20829;DHT22;10575;50.124;8.582;2023-08-30T17:27:11;19.40;99.90
20829;DHT22;10575;50.124;8.582;2023-08-30T17:29:37;19.40;99.90
20829;DHT22;10575;50.124;8.582;2023-08-30T17:32:02;19.20;99.90
20829;DHT22;10575;50.124;8.582;2023-08-30T17:34:28;19.00;99.90
20829;DHT22;10575;50.124;8.582;2023-08-30T17:36:55;18.60;99.90
20829;DHT22;10575;50.124;8.582;2023-08-30T17:39:23;18.40;99.90
20829;DHT22;10575;50.124;8.582;2023-08-30T17:41:53;18.20;99.90
20829;DHT22;10575;50.124;8.582;2023-08-30T17:44:18;18.30;99.90
20829;DHT22;10575;50.124;8.582;2023-08-30T17:46:47;18.30;99.90
20829;DHT22;10575;50.124;8.582;2023-08-30T17:49:13;18.40;99.90
20829;DHT22;10575;50.124;8.582;2023-08-30T17:51:38;18.60;99.90
20829;DHT22;10575;50.124;8.582;2023-08-30T17:54:04;18.80;99.90
20829;DHT22;10575;50.124;8.582;2023-08-30T17:56:30;18.80;99.90
20829;DHT22;10575;50.124;8.582;2023-08-30T17:58:56;18.80;99.90
20829;DHT22;10575;50.124;8.582;2023-08-30T18:01:21;18.70;99.90
20829;DHT22;10575;50.124;8.582;2023-08-30T18:03:47;18.60;99.90
20829;DHT22;10575;50.124;8.582;2023-08-30T18:06:13;18.50;99.90
20829;DHT22;10575;50.124;8.582;2023-08-30T18:08:40;18.40;99.90
20829;DHT22;10575;50.124;8.582;2023-08-30T18:11:13;18.30;99.90
20829;DHT22;10575;50.124;8.582;2023-08-30T18:13:40;18.20;99.90
20829;DHT22;10575;50.124;8.582;2023-08-30T18:16:06;18.10;99.90
20829;DHT22;10575;50.124;8.582;2023-08-30T18:18:32;18.10;99.90
20829;DHT22;10575;50.124;8.582;2023-08-30T18:20:57;18.00;99.90
20829;DHT22;10575;50.124;8.582;2023-08-30T18:23:25;18.00;99.90
20829;DHT22;10575;50.124;8.582;2023-08-30T18:25:50;17.90;99.90
20829;DHT22;10575;50.124;8.582;2023-08-30T18:28:16;17.80;99.90
20829;DHT22;10575;50.124;8.582;2023-08-30T18:30:41;17.80;99.90
20829;DHT22;10575;50.124;8.582;2023-08-30T18:33:07;17.90;99.90
20829;DHT22;10575;50.124;8.582;2023-08-30T18:35:33;17.80;99.90
20829;DHT22;10575;50.124;8.582;2023-08-30T18:37:59;17.60;99.90
20829;DHT22;10575;50.124;8.582;2023-08-30T18:40:29;17.60;99.90
20829;DHT22;10575;50.124;8.582;2023-08-30T18:42:54;17.50;99.90
20829;DHT22;10575;50.124;8.582;2023-08-30T18:45:20;17.50;99.90
20829;DHT22;10575;50.124;8.582;2023-08-30T18:47:46;17.30;99.90
20829;DHT22;10575;50.124;8.582;2023-08-30T18:50:12;17.30;99.90
20829;DHT22;10575;50.124;8.582;2023-08-30T18:52:38;17.00;99.90
20829;DHT22;10575;50.124;8.582;2023-08-30T18:55:05;16.70;99.90
20829;DHT22;10575;50.124;8.582;2023-08-30T18:57:31;16.50;99.90
20829;DHT22;10575;50.124;8.582;2023-08-30T18:59:58;16.40;99.90
20829;DHT22;10575;50.124;8.582;2023-08-30T19:02:25;16.40;99.90